sensor_id;sensor_type;location;lat;lon;timestamp;temperature;humidity
17956;DHT22;27666;51.498;11.966;2023-05-10T00:02:02;11.90;99.90
17956;DHT22;27666;51.498;11.966;2023-05-10T00:04:49;11.80;99.90
17956;DHT22;27666;51.498;11.966;2023-05-10T00:07:37;11.80;99.90
17956;DHT22;27666;51.498;11.966;2023-05-10T00:10:24;11.80;99.90
17956;DHT22;27666;51.498;11.966;2023-05-10T00:13:10;11.70;99.90
17956;DHT22;27666;51.498;11.966;2023-05-10T00:15:56;11.70;99.90
17956;DHT22;27666;51.498;11.966;2023-05-10T00:18:43;11.60;99.90
17956;DHT22;27666;51.498;11.966;2023-05-10T00:21:30;11.60;99.90
17956;DHT22;27666;51.498;11.966;2023-05-10T00:24:18;11.60;99.90
17956;DHT22;27666;51.498;11.966;2023-05-10T00:27:05;11.60;99.90
17956;DHT22;27666;51.498;11.966;2023-05-10T00:29:52;11.50;99.90
17956;DHT22;27666;51.498;11.966;2023-05-10T00:32:38;11.40;99.90
17956;DHT22;27666;51.498;11.966;2023-05-10T00:35:25;11.40;99.90
17956;DHT22;27666;51.498;11.966;2023-05-10T00:38:12;11.30;99.90
17956;DHT22;27666;51.498;11.966;2023-05-10T00:41:00;11.30;99.90
17956;DHT22;27666;51.498;11.966;2023-05-10T00:43:47;11.30;99.90
17956;DHT22;27666;51.498;11.966;2023-05-10T00:46:34;11.30;99.90
17956;DHT22;27666;51.498;11.966;2023-05-10T00:49:21;11.30;99.90
17956;DHT22;27666;51.498;11.966;2023-05-10T00:52:08;11.40;99.90
17956;DHT22;27666;51.498;11.966;2023-05-10T00:54:55;11.20;99.90
17956;DHT22;27666;51.498;11.966;2023-05-10T00:57:43;11.30;99.90
17956;DHT22;27666;51.498;11.966;2023-05-10T01:00:32;11.20;99.90
17956;DHT22;27666;51.498;11.966;2023-05-10T01:03:19;11.20;99.90
17956;DHT22;27666;51.498;11.966;2023-05-10T01:06:07;11.20;99.90
17956;DHT22;27666;51.498;11.966;2023-05-10T01:08:55;11.20;99.90
17956;DHT22;27666;51.498;11.966;2023-05-10T01:11:41;11.20;99.90
17956;DHT22;27666;51.498;11.966;2023-05-10T01:14:30;11.10;99.90
17956;DHT22;27666;51.498;11.966;2023-05-10T01:17:17;11.10;99.90
17956;DHT22;27666;51.498;11.966;2023-05-10T01:20:04;11.00;99.90
17956;DHT22;27666;51.498;11.966;2023-05-10T01:26:45;11.00;99.90
17956;DHT22;27666;51.498;11.966;2023-05-10T01:30:01;11.10;99.90
17956;DHT22;27666;51.498;11.966;2023-05-10T01:33:09;11.00;99.90
17956;DHT22;27666;51.498;11.966;2023-05-10T01:36:05;11.10;99.90
17956;DHT22;27666;51.498;11.966;2023-05-10T01:39:01;11.00;99.90
17956;DHT22;27666;51.498;11.966;2023-05-10T01:41:52;11.00;99.90
17956;DHT22;27666;51.498;11.966;2023-05-10T01:44:49;11.10;99.90
17956;DHT22;27666;51.498;11.966;2023-05-10T01:47:42;11.00;99.90
17956;DHT22;27666;51.498;11.966;2023-05-10T01:50:31;10.90;99.90
17956;DHT22;27666;51.498;11.966;2023-05-10T01:53:20;10.80;99.90
17956;DHT22;27666;51.498;11.966;2023-05-10T01:56:07;10.80;99.90
17956;DHT22;27666;51.498;11.966;2023-05-10T01:58:56;10.80;99.90
17956;DHT22;27666;51.498;11.966;2023-05-10T02:01:45;10.70;99.90
17956;DHT22;27666;51.498;11.966;2023-05-10T02:04:35;10.70;99.90
17956;DHT22;27666;51.498;11.966;2023-05-10T02:07:27;10.70;99.90
17956;DHT22;27666;51.498;11.966;2023-05-10T02:10:15;10.60;99.90
17956;DHT22;27666;51.498;11.966;2023-05-10T02:13:06;10.60;99.90
17956;DHT22;27666;51.498;11.966;2023-05-10T02:15:54;10.60;99.90
17956;DHT22;27666;51.498;11.966;2023-05-10T02:18:41;10.60;99.90
17956;DHT22;27666;51.498;11.966;2023-05-10T02:21:29;10.60;99.90
17956;DHT22;27666;51.498;11.966;2023-05-10T02:24:19;10.60;99.90
17956;DHT22;27666;51.498;11.966;2023-05-10T02:27:07;10.50;99.90
17956;DHT22;27666;51.498;11.966;2023-05-10T02:29:55;10.50;99.90
17956;DHT22;27666;51.498;11.966;2023-05-10T02:32:43;10.40;99.90
17956;DHT22;27666;51.498;11.966;2023-05-10T02:35:31;10.30;99.90
17956;DHT22;27666;51.498;11.966;2023-05-10T02:38:19;10.30;99.90
17956;DHT22;27666;51.498;11.966;2023-05-10T02:41:08;10.30;99.90
17956;DHT22;27666;51.498;11.966;2023-05-10T02:43:59;10.20;99.90
17956;DHT22;27666;51.498;11.966;2023-05-10T02:46:46;10.20;99.90
17956;DHT22;27666;51.498;11.966;2023-05-10T02:49:33;10.30;99.90
17956;DHT22;27666;51.498;11.966;2023-05-10T02:52:25;10.30;99.90
17956;DHT22;27666;51.498;11.966;2023-05-10T02:55:13;10.30;99.90
17956;DHT22;27666;51.498;11.966;2023-05-10T02:58:03;10.20;99.90
17956;DHT22;27666;51.498;11.966;2023-05-10T03:00:49;10.20;99.90
17956;DHT22;27666;51.498;11.966;2023-05-10T03:03:36;10.30;99.90
17956;DHT22;27666;51.498;11.966;2023-05-10T03:06:22;10.20;99.90
17956;DHT22;27666;51.498;11.966;2023-05-10T03:09:09;10.20;99.90
17956;DHT22;27666;51.498;11.966;2023-05-10T03:12:04;10.20;99.90
17956;DHT22;27666;51.498;11.966;2023-05-10T03:15:00;10.20;99.90
17956;DHT22;27666;51.498;11.966;2023-05-10T03:17:55;10.30;99.90
17956;DHT22;27666;51.498;11.966;2023-05-10T03:20:46;10.30;99.90
17956;DHT22;27666;51.498;11.966;2023-05-10T03:23:35;10.20;99.90
17956;DHT22;27666;51.498;11.966;2023-05-10T03:26:25;10.20;99.90
17956;DHT22;27666;51.498;11.966;2023-05-10T03:29:13;10.30;99.90
17956;DHT22;27666;51.498;11.966;2023-05-10T03:32:02;10.30;99.90
17956;DHT22;27666;51.498;11.966;2023-05-10T03:34:49;10.30;99.90
17956;DHT22;27666;51.498;11.966;2023-05-10T03:37:35;10.30;99.90
17956;DHT22;27666;51.498;11.966;2023-05-10T03:40:22;10.30;99.90
17956;DHT22;27666;51.498;11.966;2023-05-10T03:43:08;10.20;99.90
17956;DHT22;27666;51.498;11.966;2023-05-10T03:45:55;10.20;99.90
17956;DHT22;27666;51.498;11.966;2023-05-10T03:48:43;10.10;99.90
17956;DHT22;27666;51.498;11.966;2023-05-10T03:51:29;10.10;99.90
17956;DHT22;27666;51.498;11.966;2023-05-10T03:54:16;10.20;99.90
17956;DHT22;27666;51.498;11.966;2023-05-10T03:57:04;10.20;99.90
17956;DHT22;27666;51.498;11.966;2023-05-10T03:59:50;10.40;99.90
17956;DHT22;27666;51.498;11.966;2023-05-10T04:02:37;10.40;99.90
17956;DHT22;27666;51.498;11.966;2023-05-10T04:05:25;10.60;99.90
17956;DHT22;27666;51.498;11.966;2023-05-10T04:08:11;10.70;99.90
17956;DHT22;27666;51.498;11.966;2023-05-10T04:11:05;10.80;99.90
17956;DHT22;27666;51.498;11.966;2023-05-10T04:13:52;10.90;99.90
17956;DHT22;27666;51.498;11.966;2023-05-10T04:16:39;11.10;99.90
17956;DHT22;27666;51.498;11.966;2023-05-10T04:19:29;11.30;99.90
17956;DHT22;27666;51.498;11.966;2023-05-10T04:22:17;11.50;99.90
17956;DHT22;27666;51.498;11.966;2023-05-10T04:25:05;11.70;99.90
17956;DHT22;27666;51.498;11.966;2023-05-10T04:27:52;11.90;99.90
17956;DHT22;27666;51.498;11.966;2023-05-10T04:30:39;12.20;99.90
17956;DHT22;27666;51.498;11.966;2023-05-10T04:33:25;12.40;99.90
17956;DHT22;27666;51.498;11.966;2023-05-10T04:36:12;12.60;99.90
17956;DHT22;27666;51.498;11.966;2023-05-10T04:39:00;12.80;99.90
17956;DHT22;27666;51.498;11.966;2023-05-10T04:41:47;13.00;99.90
17956;DHT22;27666;51.498;11.966;2023-05-10T04:44:34;13.10;99.90
17956;DHT22;27666;51.498;11.966;2023-05-10T04:47:21;13.10;99.90
17956;DHT22;27666;51.498;11.966;2023-05-10T04:50:08;13.20;99.90
17956;DHT22;27666;51.498;11.966;2023-05-10T04:52:54;13.20;99.90
17956;DHT22;27666;51.498;11.966;2023-05-10T04:55:42;13.40;99.90
17956;DHT22;27666;51.498;11.966;2023-05-10T04:58:29;13.50;99.90
17956;DHT22;27666;51.498;11.966;2023-05-10T05:01:15;13.60;99.90
17956;DHT22;27666;51.498;11.966;2023-05-10T05:04:02;13.80;99.90
17956;DHT22;27666;51.498;11.966;2023-05-10T05:06:49;13.80;99.90
17956;DHT22;27666;51.498;11.966;2023-05-10T05:09:38;14.10;99.90
17956;DHT22;27666;51.498;11.966;2023-05-10T05:12:26;14.30;99.90
17956;DHT22;27666;51.498;11.966;2023-05-10T05:15:12;14.60;99.90
17956;DHT22;27666;51.498;11.966;2023-05-10T05:18:00;14.70;99.90
17956;DHT22;27666;51.498;11.966;2023-05-10T05:20:47;14.60;99.90
17956;DHT22;27666;51.498;11.966;2023-05-10T05:23:33;14.60;99.90
17956;DHT22;27666;51.498;11.966;2023-05-10T05:26:20;14.70;99.90
17956;DHT22;27666;51.498;11.966;2023-05-10T05:29:07;14.70;99.90
17956;DHT22;27666;51.498;11.966;2023-05-10T05:31:54;14.50;99.90
17956;DHT22;27666;51.498;11.966;2023-05-10T05:34:40;14.40;99.90
17956;DHT22;27666;51.498;11.966;2023-05-10T05:37:27;14.30;99.90
17956;DHT22;27666;51.498;11.966;2023-05-10T05:40:13;14.20;99.90
17956;DHT22;27666;51.498;11.966;2023-05-10T05:43:00;14.30;99.90
17956;DHT22;27666;51.498;11.966;2023-05-10T05:45:48;14.30;99.90
17956;DHT22;27666;51.498;11.966;2023-05-10T05:48:34;14.30;99.90
17956;DHT22;27666;51.498;11.966;2023-05-10T05:51:21;14.40;99.90
17956;DHT22;27666;51.498;11.966;2023-05-10T05:54:08;14.50;99.90
17956;DHT22;27666;51.498;11.966;2023-05-10T05:56:54;14.50;99.90
17956;DHT22;27666;51.498;11.966;2023-05-10T05:59:44;14.60;99.90
17956;DHT22;27666;51.498;11.966;2023-05-10T06:02:32;14.80;99.90
17956;DHT22;27666;51.498;11.966;2023-05-10T06:05:18;14.90;99.90
17956;DHT22;27666;51.498;11.966;2023-05-10T06:08:05;14.90;99.90
17956;DHT22;27666;51.498;11.966;2023-05-10T06:10:51;15.10;99.90
17956;DHT22;27666;51.498;11.966;2023-05-10T06:13:38;15.00;99.90
17956;DHT22;27666;51.498;11.966;2023-05-10T06:16:24;15.00;99.90
17956;DHT22;27666;51.498;11.966;2023-05-10T06:19:12;15.00;99.90
17956;DHT22;27666;51.498;11.966;2023-05-10T06:21:59;15.00;99.90
17956;DHT22;27666;51.498;11.966;2023-05-10T06:24:46;15.10;99.90
17956;DHT22;27666;51.498;11.966;2023-05-10T06:27:32;15.30;99.90
17956;DHT22;27666;51.498;11.966;2023-05-10T06:30:19;15.40;99.90
17956;DHT22;27666;51.498;11.966;2023-05-10T06:33:12;15.50;99.90
17956;DHT22;27666;51.498;11.966;2023-05-10T06:36:00;15.80;99.90
17956;DHT22;27666;51.498;11.966;2023-05-10T06:38:47;16.00;99.90
17956;DHT22;27666;51.498;11.966;2023-05-10T06:41:33;16.20;99.90
17956;DHT22;27666;51.498;11.966;2023-05-10T06:44:20;16.40;99.90
17956;DHT22;27666;51.498;11.966;2023-05-10T06:47:06;16.60;99.90
17956;DHT22;27666;51.498;11.966;2023-05-10T06:49:53;16.70;99.90
17956;DHT22;27666;51.498;11.966;2023-05-10T06:52:42;16.70;99.90
17956;DHT22;27666;51.498;11.966;2023-05-10T06:55:29;16.50;99.90
17956;DHT22;27666;51.498;11.966;2023-05-10T06:58:16;16.50;99.90
17956;DHT22;27666;51.498;11.966;2023-05-10T07:01:03;16.50;99.90
17956;DHT22;27666;51.498;11.966;2023-05-10T07:03:50;16.40;99.90
17956;DHT22;27666;51.498;11.966;2023-05-10T07:06:37;16.50;99.90
17956;DHT22;27666;51.498;11.966;2023-05-10T07:09:26;16.50;99.90
17956;DHT22;27666;51.498;11.966;2023-05-10T07:12:12;16.70;99.90
17956;DHT22;27666;51.498;11.966;2023-05-10T07:15:00;16.70;99.90
17956;DHT22;27666;51.498;11.966;2023-05-10T07:17:46;16.70;99.90
17956;DHT22;27666;51.498;11.966;2023-05-10T07:20:33;16.70;99.90
17956;DHT22;27666;51.498;11.966;2023-05-10T07:23:20;16.60;99.90
17956;DHT22;27666;51.498;11.966;2023-05-10T07:26:08;16.50;99.90
17956;DHT22;27666;51.498;11.966;2023-05-10T07:28:54;16.50;99.90
17956;DHT22;27666;51.498;11.966;2023-05-10T07:31:41;16.60;99.90
17956;DHT22;27666;51.498;11.966;2023-05-10T07:34:28;16.50;99.90
17956;DHT22;27666;51.498;11.966;2023-05-10T07:37:15;16.50;99.90
17956;DHT22;27666;51.498;11.966;2023-05-10T07:40:01;16.50;99.90
17956;DHT22;27666;51.498;11.966;2023-05-10T07:42:49;16.50;99.90
17956;DHT22;27666;51.498;11.966;2023-05-10T07:45:36;16.40;99.90
17956;DHT22;27666;51.498;11.966;2023-05-10T07:48:22;16.50;99.90
17956;DHT22;27666;51.498;11.966;2023-05-10T07:51:08;16.50;99.90
17956;DHT22;27666;51.498;11.966;2023-05-10T07:53:55;16.50;99.90
17956;DHT22;27666;51.498;11.966;2023-05-10T07:56:43;16.50;99.90
17956;DHT22;27666;51.498;11.966;2023-05-10T07:59:33;16.50;99.90
17956;DHT22;27666;51.498;11.966;2023-05-10T08:02:20;16.60;99.90
17956;DHT22;27666;51.498;11.966;2023-05-10T08:05:07;16.60;99.90
17956;DHT22;27666;51.498;11.966;2023-05-10T08:07:53;16.50;99.90
17956;DHT22;27666;51.498;11.966;2023-05-10T08:10:39;16.50;99.90
17956;DHT22;27666;51.498;11.966;2023-05-10T08:13:26;16.40;99.90
17956;DHT22;27666;51.498;11.966;2023-05-10T08:16:14;16.30;99.90
17956;DHT22;27666;51.498;11.966;2023-05-10T08:19:01;16.10;99.90
17956;DHT22;27666;51.498;11.966;2023-05-10T08:21:49;16.00;99.90
17956;DHT22;27666;51.498;11.966;2023-05-10T08:24:35;15.90;99.90
17956;DHT22;27666;51.498;11.966;2023-05-10T08:27:23;15.80;99.90
17956;DHT22;27666;51.498;11.966;2023-05-10T08:30:10;15.70;99.90
17956;DHT22;27666;51.498;11.966;2023-05-10T08:32:58;15.70;99.90
17956;DHT22;27666;51.498;11.966;2023-05-10T08:35:45;15.60;99.90
17956;DHT22;27666;51.498;11.966;2023-05-10T08:38:31;15.60;99.90
17956;DHT22;27666;51.498;11.966;2023-05-10T08:41:19;15.50;99.90
17956;DHT22;27666;51.498;11.966;2023-05-10T08:44:08;15.50;99.90
17956;DHT22;27666;51.498;11.966;2023-05-10T08:46:55;15.50;99.90
17956;DHT22;27666;51.498;11.966;2023-05-10T08:49:43;15.50;99.90
17956;DHT22;27666;51.498;11.966;2023-05-10T08:52:38;15.40;99.90
17956;DHT22;27666;51.498;11.966;2023-05-10T08:55:25;15.40;99.90
17956;DHT22;27666;51.498;11.966;2023-05-10T08:58:11;15.40;99.90
17956;DHT22;27666;51.498;11.966;2023-05-10T09:00:59;15.50;99.90
17956;DHT22;27666;51.498;11.966;2023-05-10T09:03:46;15.50;99.90
17956;DHT22;27666;51.498;11.966;2023-05-10T09:06:35;15.50;99.90
17956;DHT22;27666;51.498;11.966;2023-05-10T09:09:21;15.60;99.90
17956;DHT22;27666;51.498;11.966;2023-05-10T09:14:58;15.70;99.90
17956;DHT22;27666;51.498;11.966;2023-05-10T09:17:46;15.70;99.90
17956;DHT22;27666;51.498;11.966;2023-05-10T09:20:33;15.80;99.90
17956;DHT22;27666;51.498;11.966;2023-05-10T09:23:20;16.00;99.90
17956;DHT22;27666;51.498;11.966;2023-05-10T09:26:07;16.10;99.90
17956;DHT22;27666;51.498;11.966;2023-05-10T09:28:55;16.40;99.90
17956;DHT22;27666;51.498;11.966;2023-05-10T09:31:47;16.30;99.90
17956;DHT22;27666;51.498;11.966;2023-05-10T09:34:36;16.40;99.90
17956;DHT22;27666;51.498;11.966;2023-05-10T09:37:29;16.20;99.90
17956;DHT22;27666;51.498;11.966;2023-05-10T09:40:19;16.20;99.90
17956;DHT22;27666;51.498;11.966;2023-05-10T09:43:07;16.10;99.90
17956;DHT22;27666;51.498;11.966;2023-05-10T09:45:53;16.10;99.90
17956;DHT22;27666;51.498;11.966;2023-05-10T09:48:44;16.10;99.90
17956;DHT22;27666;51.498;11.966;2023-05-10T09:51:31;16.20;99.90
17956;DHT22;27666;51.498;11.966;2023-05-10T09:54:20;16.40;99.90
17956;DHT22;27666;51.498;11.966;2023-05-10T09:57:19;16.40;99.90
17956;DHT22;27666;51.498;11.966;2023-05-10T10:00:07;16.60;99.90
17956;DHT22;27666;51.498;11.966;2023-05-10T10:02:56;16.80;99.90
17956;DHT22;27666;51.498;11.966;2023-05-10T10:05:44;16.90;99.90
17956;DHT22;27666;51.498;11.966;2023-05-10T10:08:31;17.20;99.90
17956;DHT22;27666;51.498;11.966;2023-05-10T10:11:17;17.30;99.90
17956;DHT22;27666;51.498;11.966;2023-05-10T10:14:05;17.50;99.90
17956;DHT22;27666;51.498;11.966;2023-05-10T10:16:52;17.60;99.90
17956;DHT22;27666;51.498;11.966;2023-05-10T10:19:51;17.50;99.90
17956;DHT22;27666;51.498;11.966;2023-05-10T10:22:38;17.40;99.90
17956;DHT22;27666;51.498;11.966;2023-05-10T10:25:25;17.40;99.90
17956;DHT22;27666;51.498;11.966;2023-05-10T10:28:32;17.50;99.90
17956;DHT22;27666;51.498;11.966;2023-05-10T10:31:32;17.50;99.90
17956;DHT22;27666;51.498;11.966;2023-05-10T10:34:25;17.30;99.90
17956;DHT22;27666;51.498;11.966;2023-05-10T10:37:13;17.30;99.90
17956;DHT22;27666;51.498;11.966;2023-05-10T10:40:00;17.30;99.90
17956;DHT22;27666;51.498;11.966;2023-05-10T10:42:54;17.40;99.90
17956;DHT22;27666;51.498;11.966;2023-05-10T10:45:41;17.40;99.90
17956;DHT22;27666;51.498;11.966;2023-05-10T10:48:29;17.70;99.90
17956;DHT22;27666;51.498;11.966;2023-05-10T10:51:15;17.80;99.90
17956;DHT22;27666;51.498;11.966;2023-05-10T10:54:08;18.10;99.90
17956;DHT22;27666;51.498;11.966;2023-05-10T10:57:11;18.30;99.90
17956;DHT22;27666;51.498;11.966;2023-05-10T11:00:24;18.50;99.90
17956;DHT22;27666;51.498;11.966;2023-05-10T11:03:13;18.60;99.90
17956;DHT22;27666;51.498;11.966;2023-05-10T11:06:05;18.80;99.90
17956;DHT22;27666;51.498;11.966;2023-05-10T11:08:52;18.90;99.90
17956;DHT22;27666;51.498;11.966;2023-05-10T11:11:50;18.90;99.90
17956;DHT22;27666;51.498;11.966;2023-05-10T11:14:37;18.80;99.90
17956;DHT22;27666;51.498;11.966;2023-05-10T11:17:24;18.70;99.90
17956;DHT22;27666;51.498;11.966;2023-05-10T11:20:14;18.80;99.90
17956;DHT22;27666;51.498;11.966;2023-05-10T11:23:13;18.80;99.90
17956;DHT22;27666;51.498;11.966;2023-05-10T11:26:01;18.90;99.90
17956;DHT22;27666;51.498;11.966;2023-05-10T11:28:48;18.90;99.90
17956;DHT22;27666;51.498;11.966;2023-05-10T11:34:23;19.30;99.90
17956;DHT22;27666;51.498;11.966;2023-05-10T11:37:10;19.60;99.90
17956;DHT22;27666;51.498;11.966;2023-05-10T11:39:58;19.70;99.90
17956;DHT22;27666;51.498;11.966;2023-05-10T11:42:45;19.90;99.90
17956;DHT22;27666;51.498;11.966;2023-05-10T11:45:32;20.00;99.90
17956;DHT22;27666;51.498;11.966;2023-05-10T11:48:19;19.90;99.90
17956;DHT22;27666;51.498;11.966;2023-05-10T11:51:11;19.80;99.90
17956;DHT22;27666;51.498;11.966;2023-05-10T11:53:58;19.70;99.90
17956;DHT22;27666;51.498;11.966;2023-05-10T11:56:46;19.60;99.90
17956;DHT22;27666;51.498;11.966;2023-05-10T11:59:32;19.70;99.90
17956;DHT22;27666;51.498;11.966;2023-05-10T12:02:18;19.50;99.90
17956;DHT22;27666;51.498;11.966;2023-05-10T12:05:06;19.40;99.90
17956;DHT22;27666;51.498;11.966;2023-05-10T12:07:53;19.00;99.90
17956;DHT22;27666;51.498;11.966;2023-05-10T12:11:05;18.80;99.90
17956;DHT22;27666;51.498;11.966;2023-05-10T12:13:54;18.40;99.90
17956;DHT22;27666;51.498;11.966;2023-05-10T12:16:40;18.20;99.90
17956;DHT22;27666;51.498;11.966;2023-05-10T12:19:36;18.10;99.90
17956;DHT22;27666;51.498;11.966;2023-05-10T12:22:23;18.00;99.90
17956;DHT22;27666;51.498;11.966;2023-05-10T12:25:10;17.80;99.90
17956;DHT22;27666;51.498;11.966;2023-05-10T12:27:58;17.70;99.90
17956;DHT22;27666;51.498;11.966;2023-05-10T12:30:47;17.70;99.90
17956;DHT22;27666;51.498;11.966;2023-05-10T12:33:40;17.70;99.90
17956;DHT22;27666;51.498;11.966;2023-05-10T12:36:27;17.70;99.90
17956;DHT22;27666;51.498;11.966;2023-05-10T12:39:14;17.70;99.90
17956;DHT22;27666;51.498;11.966;2023-05-10T12:42:00;17.60;99.90
17956;DHT22;27666;51.498;11.966;2023-05-10T12:44:47;17.60;99.90
17956;DHT22;27666;51.498;11.966;2023-05-10T12:47:35;17.40;99.90
17956;DHT22;27666;51.498;11.966;2023-05-10T12:50:22;17.30;99.90
17956;DHT22;27666;51.498;11.966;2023-05-10T12:53:09;17.30;99.90
17956;DHT22;27666;51.498;11.966;2023-05-10T12:55:56;17.40;99.90
17956;DHT22;27666;51.498;11.966;2023-05-10T12:58:42;17.50;99.90
17956;DHT22;27666;51.498;11.966;2023-05-10T13:01:32;17.60;99.90
17956;DHT22;27666;51.498;11.966;2023-05-10T13:04:20;17.70;99.90
17956;DHT22;27666;51.498;11.966;2023-05-10T13:07:07;17.80;99.90
17956;DHT22;27666;51.498;11.966;2023-05-10T13:09:54;17.90;99.90
17956;DHT22;27666;51.498;11.966;2023-05-10T13:12:40;17.90;99.90
17956;DHT22;27666;51.498;11.966;2023-05-10T13:15:29;18.10;99.90
17956;DHT22;27666;51.498;11.966;2023-05-10T13:18:16;18.20;99.90
17956;DHT22;27666;51.498;11.966;2023-05-10T13:21:04;18.30;99.90
17956;DHT22;27666;51.498;11.966;2023-05-10T13:23:51;18.20;99.90
17956;DHT22;27666;51.498;11.966;2023-05-10T13:26:37;18.20;99.90
17956;DHT22;27666;51.498;11.966;2023-05-10T13:29:24;18.10;99.90
17956;DHT22;27666;51.498;11.966;2023-05-10T13:32:10;18.10;99.90
17956;DHT22;27666;51.498;11.966;2023-05-10T13:34:57;18.00;99.90
17956;DHT22;27666;51.498;11.966;2023-05-10T13:37:45;17.80;99.90
17956;DHT22;27666;51.498;11.966;2023-05-10T13:40:31;17.70;99.90
17956;DHT22;27666;51.498;11.966;2023-05-10T13:43:18;17.70;99.90
17956;DHT22;27666;51.498;11.966;2023-05-10T13:46:04;17.60;99.90
17956;DHT22;27666;51.498;11.966;2023-05-10T13:48:51;17.70;99.90
17956;DHT22;27666;51.498;11.966;2023-05-10T13:51:38;17.70;99.90
17956;DHT22;27666;51.498;11.966;2023-05-10T13:54:26;17.80;99.90
17956;DHT22;27666;51.498;11.966;2023-05-10T13:57:14;17.70;99.90
17956;DHT22;27666;51.498;11.966;2023-05-10T14:00:02;17.60;99.90
17956;DHT22;27666;51.498;11.966;2023-05-10T14:02:48;17.60;99.90
17956;DHT22;27666;51.498;11.966;2023-05-10T14:05:35;17.60;99.90
17956;DHT22;27666;51.498;11.966;2023-05-10T14:08:21;17.60;99.90
17956;DHT22;27666;51.498;11.966;2023-05-10T14:11:09;17.50;99.90
17956;DHT22;27666;51.498;11.966;2023-05-10T14:13:55;17.50;99.90
17956;DHT22;27666;51.498;11.966;2023-05-10T14:16:43;17.50;99.90
17956;DHT22;27666;51.498;11.966;2023-05-10T14:19:30;17.40;99.90
17956;DHT22;27666;51.498;11.966;2023-05-10T14:22:17;17.50;99.90
17956;DHT22;27666;51.498;11.966;2023-05-10T14:25:05;17.60;99.90
17956;DHT22;27666;51.498;11.966;2023-05-10T14:27:53;17.70;99.90
17956;DHT22;27666;51.498;11.966;2023-05-10T14:30:39;17.70;99.90
17956;DHT22;27666;51.498;11.966;2023-05-10T14:33:26;17.80;99.90
17956;DHT22;27666;51.498;11.966;2023-05-10T14:36:13;17.80;99.90
17956;DHT22;27666;51.498;11.966;2023-05-10T14:39:01;17.90;99.90
17956;DHT22;27666;51.498;11.966;2023-05-10T14:41:48;17.90;99.90
17956;DHT22;27666;51.498;11.966;2023-05-10T14:44:37;17.90;99.90
17956;DHT22;27666;51.498;11.966;2023-05-10T14:47:24;18.00;99.90
17956;DHT22;27666;51.498;11.966;2023-05-10T14:50:11;18.00;99.90
17956;DHT22;27666;51.498;11.966;2023-05-10T14:53:18;18.00;99.90
17956;DHT22;27666;51.498;11.966;2023-05-10T14:56:05;17.90;99.90
17956;DHT22;27666;51.498;11.966;2023-05-10T14:58:55;17.90;99.90
17956;DHT22;27666;51.498;11.966;2023-05-10T15:01:44;17.80;99.90
17956;DHT22;27666;51.498;11.966;2023-05-10T15:04:31;17.60;99.90
17956;DHT22;27666;51.498;11.966;2023-05-10T15:07:18;17.60;99.90
17956;DHT22;27666;51.498;11.966;2023-05-10T15:10:06;17.70;99.90
17956;DHT22;27666;51.498;11.966;2023-05-10T15:12:53;17.70;99.90
17956;DHT22;27666;51.498;11.966;2023-05-10T15:15:39;17.70;99.90
17956;DHT22;27666;51.498;11.966;2023-05-10T15:18:27;17.60;99.90
17956;DHT22;27666;51.498;11.966;2023-05-10T15:21:13;17.60;99.90
17956;DHT22;27666;51.498;11.966;2023-05-10T15:24:00;17.50;99.90
17956;DHT22;27666;51.498;11.966;2023-05-10T15:26:46;17.60;99.90
17956;DHT22;27666;51.498;11.966;2023-05-10T15:29:33;17.70;99.90
17956;DHT22;27666;51.498;11.966;2023-05-10T15:32:20;17.70;99.90
17956;DHT22;27666;51.498;11.966;2023-05-10T15:35:08;17.80;99.90
17956;DHT22;27666;51.498;11.966;2023-05-10T15:37:55;17.70;99.90
17956;DHT22;27666;51.498;11.966;2023-05-10T15:40:42;17.70;99.90
17956;DHT22;27666;51.498;11.966;2023-05-10T15:43:28;17.80;99.90
17956;DHT22;27666;51.498;11.966;2023-05-10T15:46:15;18.00;99.90
17956;DHT22;27666;51.498;11.966;2023-05-10T15:49:01;18.00;99.90
17956;DHT22;27666;51.498;11.966;2023-05-10T15:51:49;17.90;99.90
17956;DHT22;27666;51.498;11.966;2023-05-10T15:54:36;17.90;99.90
17956;DHT22;27666;51.498;11.966;2023-05-10T15:57:22;17.70;99.90
17956;DHT22;27666;51.498;11.966;2023-05-10T16:00:10;17.60;99.90
17956;DHT22;27666;51.498;11.966;2023-05-10T16:02:57;17.70;99.90
17956;DHT22;27666;51.498;11.966;2023-05-10T16:05:44;17.60;99.90
17956;DHT22;27666;51.498;11.966;2023-05-10T16:08:31;17.40;99.90
17956;DHT22;27666;51.498;11.966;2023-05-10T16:11:18;17.30;99.90
17956;DHT22;27666;51.498;11.966;2023-05-10T16:14:05;17.30;99.90
17956;DHT22;27666;51.498;11.966;2023-05-10T16:16:52;17.30;99.90
17956;DHT22;27666;51.498;11.966;2023-05-10T16:19:38;17.20;99.90
17956;DHT22;27666;51.498;11.966;2023-05-10T16:22:25;17.20;99.90
17956;DHT22;27666;51.498;11.966;2023-05-10T16:25:14;17.00;99.90
17956;DHT22;27666;51.498;11.966;2023-05-10T16:28:02;16.90;99.90
17956;DHT22;27666;51.498;11.966;2023-05-10T16:30:48;16.70;99.90
17956;DHT22;27666;51.498;11.966;2023-05-10T16:33:35;16.70;99.90
17956;DHT22;27666;51.498;11.966;2023-05-10T16:36:21;16.80;99.90
17956;DHT22;27666;51.498;11.966;2023-05-10T16:39:07;16.70;99.90
17956;DHT22;27666;51.498;11.966;2023-05-10T16:41:55;16.60;99.90
17956;DHT22;27666;51.498;11.966;2023-05-10T16:44:42;16.60;99.90
17956;DHT22;27666;51.498;11.966;2023-05-10T16:47:29;16.70;99.90
17956;DHT22;27666;51.498;11.966;2023-05-10T16:50:16;16.80;99.90
17956;DHT22;27666;51.498;11.966;2023-05-10T16:53:03;16.70;99.90
17956;DHT22;27666;51.498;11.966;2023-05-10T16:55:49;16.70;99.90
17956;DHT22;27666;51.498;11.966;2023-05-10T16:58:37;16.60;99.90
17956;DHT22;27666;51.498;11.966;2023-05-10T17:01:23;16.40;99.90
17956;DHT22;27666;51.498;11.966;2023-05-10T17:04:11;16.40;99.90
17956;DHT22;27666;51.498;11.966;2023-05-10T17:06:59;16.40;99.90
17956;DHT22;27666;51.498;11.966;2023-05-10T17:09:45;16.30;99.90
17956;DHT22;27666;51.498;11.966;2023-05-10T17:12:31;16.30;99.90
17956;DHT22;27666;51.498;11.966;2023-05-10T17:15:19;16.30;99.90
17956;DHT22;27666;51.498;11.966;2023-05-10T17:18:06;16.30;99.90
17956;DHT22;27666;51.498;11.966;2023-05-10T17:20:54;16.30;99.90
17956;DHT22;27666;51.498;11.966;2023-05-10T17:23:40;16.40;99.90
17956;DHT22;27666;51.498;11.966;2023-05-10T17:26:27;16.40;99.90
17956;DHT22;27666;51.498;11.966;2023-05-10T17:29:14;16.40;99.90
17956;DHT22;27666;51.498;11.966;2023-05-10T17:32:02;16.40;99.90
17956;DHT22;27666;51.498;11.966;2023-05-10T17:34:59;16.30;99.90